createdAt,value
2018-05-06T00:00:44.052Z,54.52
2018-05-06T00:01:44.035Z,54.52
2018-05-06T00:02:44.001Z,53.73
2018-05-06T00:03:43.982Z,53.06
2018-05-06T00:04:43.952Z,51.93
2018-05-06T00:05:43.942Z,52.22
2018-05-06T00:06:43.907Z,53.53
2018-05-06T00:07:43.882Z,54.02
2018-05-06T00:08:43.860Z,55.57
2018-05-06T00:09:43.826Z,54.49
2018-05-06T00:10:43.805Z,53.25
2018-05-06T00:11:43.782Z,53.44
2018-05-06T00:12:43.757Z,52.39
2018-05-06T00:13:43.736Z,52.58
2018-05-06T00:14:43.706Z,53.16
2018-05-06T00:15:43.685Z,54.02
2018-05-06T00:16:43.658Z,54.49
2018-05-06T00:17:43.633Z,54.49
2018-05-06T00:18:43.606Z,54.68
2018-05-06T00:19:43.578Z,56.98
2018-05-06T00:20:43.565Z,54.30
2018-05-06T00:21:43.535Z,55.07
2018-05-06T00:22:43.504Z,57.07
2018-05-06T00:23:43.484Z,55.07
2018-05-06T00:24:43.459Z,54.49
2018-05-06T00:25:43.432Z,55.83
2018-05-06T00:26:43.410Z,55.45
2018-05-06T00:27:43.381Z,54.21
2018-05-06T00:28:43.367Z,55.99
2018-05-06T00:29:43.343Z,57.65
2018-05-06T00:30:43.312Z,56.67
2018-05-06T00:31:43.279Z,56.85
2018-05-06T00:32:43.266Z,58.61
2018-05-06T00:33:43.231Z,57.55
2018-05-06T00:34:43.210Z,58.98
2018-05-06T00:35:43.186Z,57.93
2018-05-06T00:36:43.155Z,58.41
2018-05-06T00:37:43.137Z,56.88
2018-05-06T00:38:43.105Z,58.58
2018-05-06T00:39:43.087Z,58.70
2018-05-06T00:40:43.056Z,58.98
2018-05-06T00:41:43.034Z,59.18
2018-05-06T00:42:43.008Z,59.18
2018-05-06T00:43:42.986Z,58.19
2018-05-06T00:44:42.960Z,58.00
2018-05-06T00:45:42.947Z,57.14
2018-05-06T00:46:42.909Z,56.28
2018-05-06T00:47:42.881Z,56.67
2018-05-06T00:48:42.862Z,57.53
2018-05-06T00:49:42.831Z,56.57
2018-05-06T00:50:42.813Z,56.85
2018-05-06T00:51:42.787Z,56.57
2018-05-06T00:52:42.758Z,57.62
2018-05-06T00:53:42.734Z,60.01
2018-05-06T00:54:42.707Z,61.06
2018-05-06T00:55:42.685Z,60.01
2018-05-06T00:56:42.655Z,59.53
2018-05-06T00:57:42.637Z,59.81
2018-05-06T00:58:42.603Z,58.67
2018-05-06T00:59:42.587Z,58.67
2018-05-06T01:00:42.563Z,58.48
2018-05-06T01:01:42.531Z,58.38
2018-05-06T01:02:42.511Z,58.58
2018-05-06T01:03:42.485Z,60.01
2018-05-06T01:04:42.458Z,59.78
2018-05-06T01:05:42.436Z,58.54
2018-05-06T01:06:42.410Z,59.91
2018-05-06T01:07:42.380Z,59.98
2018-05-06T01:08:42.350Z,59.02
2018-05-06T01:09:42.335Z,62.46
2018-05-06T01:10:42.307Z,60.36
2018-05-06T01:11:42.280Z,61.98
2018-05-06T01:12:42.259Z,60.36
2018-05-06T01:13:42.229Z,60.27
2018-05-06T01:14:42.209Z,60.36
2018-05-06T01:15:42.182Z,60.46
2018-05-06T01:16:42.157Z,61.60
2018-05-06T01:17:42.137Z,63.13
2018-05-06T01:18:42.100Z,61.86
2018-05-06T01:19:42.081Z,62.75
2018-05-06T01:20:42.054Z,63.51
2018-05-06T01:21:42.031Z,62.81
2018-05-06T01:22:42.004Z,65.48
2018-05-06T01:23:41.982Z,65.20
2018-05-06T01:24:41.954Z,64.47
2018-05-06T01:25:41.929Z,64.43
2018-05-06T01:26:41.901Z,64.34
2018-05-06T01:27:41.880Z,63.76
2018-05-06T01:28:41.854Z,64.56
2018-05-06T01:29:41.828Z,65.01
2018-05-06T01:30:41.806Z,64.72
2018-05-06T01:31:41.777Z,64.62
2018-05-06T01:32:41.753Z,65.30
2018-05-06T01:33:41.722Z,64.62
2018-05-06T01:34:41.699Z,67.01
2018-05-06T01:35:41.678Z,65.04
2018-05-06T01:36:41.647Z,66.92
2018-05-06T01:37:41.630Z,66.92
2018-05-06T01:38:41.596Z,65.30
2018-05-06T01:39:41.576Z,67.30
2018-05-06T01:40:41.545Z,67.58
2018-05-06T01:41:41.530Z,68.44
2018-05-06T01:42:41.497Z,68.63
2018-05-06T01:43:41.480Z,67.97
2018-05-06T01:44:41.448Z,67.30
2018-05-06T01:45:41.426Z,66.66
2018-05-06T01:46:41.401Z,65.30
2018-05-06T01:47:41.374Z,66.92
2018-05-06T01:48:41.349Z,66.25
2018-05-06T01:49:41.329Z,64.72
2018-05-06T01:50:41.298Z,64.53
2018-05-06T01:51:41.269Z,65.01
2018-05-06T01:52:41.252Z,65.10
2018-05-06T01:53:41.219Z,65.39
2018-05-06T01:54:41.200Z,68.16
2018-05-06T01:55:41.170Z,67.49
2018-05-06T01:56:41.143Z,67.11
2018-05-06T01:57:41.123Z,67.77
2018-05-06T01:58:41.093Z,67.17
2018-05-06T01:59:41.074Z,68.51
2018-05-06T02:00:41.094Z,68.16
2018-05-06T02:01:41.021Z,67.27
2018-05-06T02:02:40.992Z,67.49
2018-05-06T02:03:40.971Z,67.46
2018-05-06T02:04:40.941Z,67.36
2018-05-06T02:05:40.928Z,67.46
2018-05-06T02:06:40.895Z,67.65
2018-05-06T02:07:40.865Z,68.32
2018-05-06T02:08:40.841Z,67.65
2018-05-06T02:09:40.825Z,67.93
2018-05-06T02:10:40.790Z,67.65
2018-05-06T02:11:40.762Z,68.12
2018-05-06T02:12:40.737Z,69.08
2018-05-06T02:13:40.720Z,68.98
2018-05-06T02:14:40.689Z,68.88
2018-05-06T02:15:40.660Z,69.08
2018-05-06T02:16:40.650Z,69.08
2018-05-06T02:17:40.614Z,69.74
2018-05-06T02:18:40.589Z,69.46
2018-05-06T02:19:40.557Z,69.23
2018-05-06T02:20:40.533Z,70.00
2018-05-06T02:21:40.516Z,70.28
2018-05-06T02:22:40.490Z,71.14
2018-05-06T02:23:40.459Z,71.04
2018-05-06T02:24:40.439Z,71.43
2018-05-06T02:25:40.403Z,71.33
2018-05-06T02:26:40.384Z,72.57
2018-05-06T02:27:40.357Z,72.67
2018-05-06T02:28:40.331Z,72.19
2018-05-06T02:29:40.342Z,71.52
2018-05-06T02:30:40.285Z,71.81
2018-05-06T02:31:40.251Z,72.28
2018-05-06T02:32:40.228Z,71.81
2018-05-06T02:33:40.210Z,72.38
2018-05-06T02:34:40.193Z,72.38
2018-05-06T02:35:40.155Z,72.28
2018-05-06T02:36:40.136Z,72.38
2018-05-06T02:37:40.103Z,73.43
2018-05-06T02:38:40.082Z,73.24
2018-05-06T02:39:40.049Z,73.14
2018-05-06T02:40:40.028Z,74.01
2018-05-06T02:41:40.000Z,74.19
2018-05-06T02:42:39.975Z,74.01
2018-05-06T02:43:39.948Z,75.15
2018-05-06T02:44:39.925Z,74.77
2018-05-06T02:45:39.904Z,74.10
2018-05-06T02:46:39.876Z,74.01
2018-05-06T02:47:39.852Z,73.91
2018-05-06T02:48:39.828Z,74.19
2018-05-06T02:49:39.793Z,74.19
2018-05-06T02:50:39.776Z,73.91
2018-05-06T02:51:39.744Z,74.29
2018-05-06T02:52:39.717Z,74.29
2018-05-06T02:53:39.700Z,75.53
2018-05-06T02:54:39.667Z,75.43
2018-05-06T02:55:39.649Z,75.72
2018-05-06T02:56:39.616Z,76.67
2018-05-06T02:57:39.602Z,74.86
2018-05-06T02:58:39.565Z,74.86
2018-05-06T02:59:39.540Z,74.96
2018-05-06T03:00:39.520Z,75.15
2018-05-06T03:01:39.490Z,75.43
2018-05-06T03:02:39.467Z,75.43
2018-05-06T03:03:39.441Z,75.34
2018-05-06T03:04:39.407Z,75.81
2018-05-06T03:05:39.392Z,75.62
2018-05-06T03:06:39.357Z,75.62
2018-05-06T03:07:39.344Z,75.34
2018-05-06T03:08:39.315Z,76.01
2018-05-06T03:09:39.282Z,76.10
2018-05-06T03:10:39.258Z,76.77
2018-05-06T03:11:39.235Z,76.48
2018-05-06T03:12:39.204Z,76.20
2018-05-06T03:13:39.183Z,76.67
2018-05-06T03:14:39.160Z,77.15
2018-05-06T03:15:39.137Z,76.20
2018-05-06T03:16:39.104Z,76.10
2018-05-06T03:17:39.089Z,76.54
2018-05-06T03:18:39.056Z,76.57
2018-05-06T03:19:39.029Z,76.57
2018-05-06T03:20:39.002Z,76.20
2018-05-06T03:21:38.984Z,76.67
2018-05-06T03:22:38.958Z,76.57
2018-05-06T03:23:38.922Z,76.16
2018-05-06T03:24:38.896Z,76.16
2018-05-06T03:25:38.880Z,76.44
2018-05-06T03:26:38.853Z,76.73
2018-05-06T03:27:38.822Z,76.44
2018-05-06T03:28:38.802Z,76.73
2018-05-06T03:29:38.770Z,77.11
2018-05-06T03:30:38.753Z,76.92
2018-05-06T03:31:38.720Z,76.92
2018-05-06T03:32:38.695Z,77.20
2018-05-06T03:33:38.673Z,76.54
2018-05-06T03:34:38.657Z,76.73
2018-05-06T03:35:38.616Z,77.49
2018-05-06T03:36:38.673Z,77.59
2018-05-06T03:37:38.574Z,78.06
2018-05-06T03:38:38.550Z,77.97
2018-05-06T03:39:38.520Z,77.20
2018-05-06T03:40:38.491Z,76.92
2018-05-06T03:41:38.466Z,77.69
2018-05-06T03:42:38.438Z,77.30
2018-05-06T03:43:38.415Z,77.40
2018-05-06T03:44:38.386Z,77.78
2018-05-06T03:45:38.368Z,78.06
2018-05-06T03:46:38.333Z,77.49
2018-05-06T03:47:38.315Z,78.06
2018-05-06T03:48:38.286Z,77.87
2018-05-06T03:49:38.259Z,77.87
2018-05-06T03:50:38.236Z,78.06
2018-05-06T03:51:38.205Z,78.73
2018-05-06T03:52:38.189Z,78.44
2018-05-06T03:53:38.154Z,77.78
2018-05-06T03:54:38.215Z,78.06
2018-05-06T03:55:38.102Z,78.25
2018-05-06T03:56:38.077Z,77.69
2018-05-06T03:57:38.060Z,77.69
2018-05-06T03:58:38.038Z,78.25
2018-05-06T03:59:37.998Z,78.16
2018-05-06T04:00:37.976Z,77.97
2018-05-06T04:01:37.953Z,77.97
2018-05-06T04:02:37.929Z,78.25
2018-05-06T04:03:37.896Z,79.30
2018-05-06T04:04:37.875Z,78.44
2018-05-06T04:05:37.855Z,78.06
2018-05-06T04:06:37.820Z,78.25
2018-05-06T04:07:37.799Z,78.16
2018-05-06T04:08:37.776Z,78.54
2018-05-06T04:09:37.753Z,77.97
2018-05-06T04:10:37.716Z,77.97
2018-05-06T04:11:37.699Z,78.06
2018-05-06T04:12:37.674Z,78.25
2018-05-06T04:13:37.638Z,78.25
2018-05-06T04:14:37.614Z,78.16
2018-05-06T04:15:37.593Z,78.44
2018-05-06T04:16:37.565Z,79.11
2018-05-06T04:17:37.541Z,79.11
2018-05-06T04:18:37.507Z,78.69
2018-05-06T04:19:37.493Z,80.54
2018-05-06T04:20:37.467Z,79.59
2018-05-06T04:21:37.434Z,80.44
2018-05-06T04:22:37.405Z,80.54
2018-05-06T04:23:37.389Z,80.16
2018-05-06T04:24:37.362Z,80.54
2018-05-06T04:25:37.331Z,79.68
2018-05-06T04:26:37.304Z,79.59
2018-05-06T04:27:37.283Z,79.88
2018-05-06T04:28:37.251Z,79.02
2018-05-06T04:29:37.236Z,79.49
2018-05-06T04:30:37.201Z,79.30
2018-05-06T04:31:37.183Z,78.92
2018-05-06T04:32:37.151Z,79.30
2018-05-06T04:33:37.127Z,80.07
2018-05-06T04:34:37.109Z,80.07
2018-05-06T04:35:37.076Z,80.35
2018-05-06T04:36:37.046Z,80.16
2018-05-06T04:37:37.028Z,79.88
2018-05-06T04:38:36.996Z,80.44
2018-05-06T04:39:36.973Z,80.44
2018-05-06T04:40:36.942Z,80.68
2018-05-06T04:41:36.929Z,80.01
2018-05-06T04:42:36.891Z,79.97
2018-05-06T04:43:36.872Z,79.78
2018-05-06T04:44:36.842Z,79.11
2018-05-06T04:45:36.819Z,79.21
2018-05-06T04:46:36.788Z,78.92
2018-05-06T04:47:36.765Z,80.01
2018-05-06T04:48:36.739Z,79.91
2018-05-06T04:49:36.719Z,79.25
2018-05-06T04:50:36.687Z,78.35
2018-05-06T04:51:36.660Z,78.58
2018-05-06T04:52:36.636Z,79.35
2018-05-06T04:53:36.615Z,79.82
2018-05-06T04:54:36.584Z,79.44
2018-05-06T04:55:36.565Z,79.15
2018-05-06T04:56:36.537Z,79.25
2018-05-06T04:57:36.502Z,79.35
2018-05-06T04:58:36.484Z,79.15
2018-05-06T04:59:36.452Z,79.15
2018-05-06T05:00:36.431Z,78.67
2018-05-06T05:01:36.404Z,78.58
2018-05-06T05:02:36.374Z,78.49
2018-05-06T05:03:36.358Z,78.10
2018-05-06T05:04:36.328Z,78.39
2018-05-06T05:05:36.300Z,77.82
2018-05-06T05:06:36.296Z,77.91
2018-05-06T05:07:36.246Z,77.62
2018-05-06T05:08:36.227Z,78.10
2018-05-06T05:09:36.290Z,78.10
2018-05-06T05:10:36.170Z,78.67
2018-05-06T05:11:36.150Z,78.01
2018-05-06T05:12:36.118Z,78.10
2018-05-06T05:13:36.102Z,78.10
2018-05-06T05:14:36.070Z,77.62
2018-05-06T05:15:36.043Z,78.49
2018-05-06T05:16:36.023Z,78.39
2018-05-06T05:17:35.989Z,77.91
2018-05-06T05:18:35.963Z,78.77
2018-05-06T05:19:35.941Z,78.30
2018-05-06T05:20:35.919Z,77.62
2018-05-06T05:21:35.895Z,78.10
2018-05-06T05:22:35.860Z,77.82
2018-05-06T05:23:35.845Z,78.10
2018-05-06T05:24:35.811Z,78.30
2018-05-06T05:25:35.802Z,77.82
2018-05-06T05:26:35.761Z,78.01
2018-05-06T05:27:35.738Z,77.25
2018-05-06T05:28:35.705Z,78.49
2018-05-06T05:29:35.688Z,78.10
2018-05-06T05:30:35.662Z,78.05
2018-05-06T05:31:35.627Z,78.30
2018-05-06T05:32:35.604Z,78.20
2018-05-06T05:33:35.584Z,78.33
2018-05-06T05:34:35.549Z,78.43
2018-05-06T05:35:35.533Z,78.91
2018-05-06T05:36:35.501Z,78.14
2018-05-06T05:37:35.482Z,77.19
2018-05-06T05:38:35.450Z,77.76
2018-05-06T05:39:35.426Z,77.38
2018-05-06T05:40:35.403Z,77.67
2018-05-06T05:41:35.375Z,77.76
2018-05-06T05:42:35.345Z,76.90
2018-05-06T05:43:35.329Z,76.33
2018-05-06T05:44:35.299Z,75.66
2018-05-06T05:45:35.270Z,77.00
2018-05-06T05:46:35.241Z,77.38
2018-05-06T05:47:35.261Z,77.47
2018-05-06T05:48:35.197Z,76.14
2018-05-06T05:49:35.171Z,76.04
2018-05-06T05:50:35.145Z,75.18
2018-05-06T05:51:35.120Z,76.33
2018-05-06T05:52:35.094Z,75.47
2018-05-06T05:53:35.070Z,75.57
2018-05-06T05:54:35.042Z,75.66
2018-05-06T05:55:35.093Z,76.71
2018-05-06T05:56:34.992Z,76.84
2018-05-06T05:57:34.961Z,76.84
2018-05-06T05:58:34.940Z,76.18
2018-05-06T05:59:34.910Z,75.60
2018-05-06T06:00:34.886Z,76.37
2018-05-06T06:01:34.935Z,75.13
2018-05-06T06:02:34.832Z,75.13
2018-05-06T06:03:34.810Z,74.65
2018-05-06T06:04:34.787Z,75.22
2018-05-06T06:05:34.758Z,75.03
2018-05-06T06:06:34.729Z,75.22
2018-05-06T06:07:34.710Z,74.93
2018-05-06T06:08:34.681Z,74.17
2018-05-06T06:09:34.649Z,74.17
2018-05-06T06:10:34.635Z,75.51
2018-05-06T06:11:34.602Z,75.83
2018-05-06T06:12:34.591Z,75.45
2018-05-06T06:13:34.600Z,75.26
2018-05-06T06:14:34.531Z,75.64
2018-05-06T06:15:34.556Z,75.54
2018-05-06T06:16:34.485Z,75.64
2018-05-06T06:17:34.535Z,75.16
2018-05-06T06:18:34.427Z,73.83
2018-05-06T06:19:34.400Z,74.02
2018-05-06T06:20:34.381Z,73.07
2018-05-06T06:21:34.352Z,74.49
2018-05-06T06:22:34.328Z,74.69
2018-05-06T06:23:34.295Z,75.93
2018-05-06T06:24:34.298Z,75.45
2018-05-06T06:25:34.252Z,74.21
2018-05-06T06:26:34.219Z,74.11
2018-05-06T06:27:34.194Z,72.81
2018-05-06T06:28:34.172Z,70.14
2018-05-06T06:29:34.144Z,70.52
2018-05-06T06:30:34.121Z,70.81
2018-05-06T06:31:34.100Z,72.72
2018-05-06T06:32:34.109Z,73.77
2018-05-06T06:33:34.040Z,72.72
2018-05-06T06:34:34.124Z,72.53
2018-05-06T06:35:34.021Z,72.91
2018-05-06T06:36:33.963Z,73.29
2018-05-06T06:37:33.941Z,70.71
2018-05-06T06:38:33.917Z,69.56
2018-05-06T06:39:33.902Z,72.28
2018-05-06T06:40:33.872Z,70.75
2018-05-06T06:41:33.855Z,69.21
2018-05-06T06:42:33.819Z,71.99
2018-05-06T06:43:33.819Z,70.46
2018-05-06T06:44:33.762Z,67.88
2018-05-06T06:45:33.741Z,66.83
2018-05-06T06:46:33.712Z,65.39
2018-05-06T06:47:33.689Z,67.78
2018-05-06T06:48:33.663Z,67.97
2018-05-06T06:49:33.644Z,68.55
2018-05-06T06:50:33.611Z,68.07
2018-05-06T06:51:33.590Z,66.73
2018-05-06T06:52:33.570Z,66.06
2018-05-06T06:53:33.532Z,67.34
2018-05-06T06:54:33.519Z,66.06
2018-05-06T06:55:33.487Z,65.52
2018-05-06T06:56:33.461Z,65.42
2018-05-06T06:57:33.440Z,66.96
2018-05-06T06:58:33.411Z,64.85
2018-05-06T06:59:33.384Z,63.32
2018-05-06T07:00:33.361Z,65.71
2018-05-06T07:01:33.334Z,65.61
2018-05-06T07:02:33.313Z,66.96
2018-05-06T07:03:33.282Z,66.28
2018-05-06T07:04:33.263Z,64.09
2018-05-06T07:05:33.232Z,64.02
2018-05-06T07:06:33.212Z,63.89
2018-05-06T07:07:33.180Z,62.87
2018-05-06T07:08:33.163Z,64.98
2018-05-06T07:09:33.137Z,63.64
2018-05-06T07:10:33.111Z,62.30
2018-05-06T07:11:33.088Z,61.63
2018-05-06T07:12:33.057Z,63.06
2018-05-06T07:13:33.063Z,62.20
2018-05-06T07:14:33.006Z,61.91
2018-05-06T07:15:32.985Z,63.54
2018-05-06T07:16:32.960Z,62.01
2018-05-06T07:17:32.937Z,59.55
2018-05-06T07:18:32.908Z,58.98
2018-05-06T07:19:32.883Z,59.27
2018-05-06T07:20:32.853Z,58.88
2018-05-06T07:21:32.841Z,60.32
2018-05-06T07:22:32.808Z,58.88
2018-05-06T07:23:32.787Z,60.03
2018-05-06T07:24:32.763Z,60.70
2018-05-06T07:25:32.735Z,60.03
2018-05-06T07:26:32.708Z,58.88
2018-05-06T07:27:32.681Z,58.88
2018-05-06T07:28:32.656Z,60.03
2018-05-06T07:29:32.640Z,60.32
2018-05-06T07:30:32.605Z,60.51
2018-05-06T07:31:32.589Z,60.99
2018-05-06T07:32:32.555Z,60.80
2018-05-06T07:33:32.551Z,59.11
2018-05-06T07:34:32.509Z,59.48
2018-05-06T07:35:32.592Z,59.30
2018-05-06T07:36:32.460Z,61.11
2018-05-06T07:37:32.439Z,60.54
2018-05-06T07:38:32.415Z,60.64
2018-05-06T07:39:32.380Z,59.01
2018-05-06T07:40:32.357Z,60.73
2018-05-06T07:41:32.366Z,59.97
2018-05-06T07:42:32.312Z,58.91
2018-05-06T07:43:32.284Z,58.05
2018-05-06T07:44:32.263Z,58.91
2018-05-06T07:45:32.243Z,57.28
2018-05-06T07:46:32.222Z,56.71
2018-05-06T07:47:34.185Z,57.86
2018-05-06T07:48:32.162Z,57.09
2018-05-06T07:49:32.142Z,57.79
2018-05-06T07:50:32.111Z,57.89
2018-05-06T07:51:32.093Z,55.87
2018-05-06T07:52:32.087Z,58.08
2018-05-06T07:53:32.051Z,56.93
2018-05-06T07:54:32.013Z,56.45
2018-05-06T07:55:31.996Z,55.58
2018-05-06T07:56:31.972Z,57.21
2018-05-06T07:57:31.939Z,55.97
2018-05-06T07:58:31.926Z,53.77
2018-05-06T07:59:31.904Z,55.21
2018-05-06T08:00:31.869Z,53.58
2018-05-06T08:01:31.851Z,55.23
2018-05-06T08:02:31.823Z,54.27
2018-05-06T08:03:31.791Z,52.83
2018-05-06T08:04:31.768Z,53.41
2018-05-06T08:05:31.749Z,53.99
2018-05-06T08:06:31.714Z,54.46
2018-05-06T08:07:31.700Z,55.62
2018-05-06T08:08:31.669Z,55.23
2018-05-06T08:09:31.648Z,54.17
2018-05-06T08:10:31.625Z,54.46
2018-05-06T08:11:31.601Z,53.22
2018-05-06T08:12:31.570Z,54.49
2018-05-06T08:13:31.556Z,53.72
2018-05-06T08:14:31.524Z,52.38
2018-05-06T08:15:31.501Z,52.86
2018-05-06T08:16:31.578Z,54.01
2018-05-06T08:17:31.452Z,53.53
2018-05-06T08:18:31.426Z,54.30
2018-05-06T08:19:31.410Z,53.44
2018-05-06T08:20:31.389Z,53.63
2018-05-06T08:21:31.353Z,53.05
2018-05-06T08:22:31.331Z,53.82
2018-05-06T08:23:31.310Z,53.44
2018-05-06T08:24:31.284Z,53.72
2018-05-06T08:25:31.257Z,53.82
2018-05-06T08:26:31.227Z,53.34
2018-05-06T08:27:31.217Z,53.72
2018-05-06T08:28:31.184Z,53.34
2018-05-06T08:29:31.164Z,52.48
2018-05-06T08:30:31.132Z,53.46
2018-05-06T08:31:31.116Z,52.89
2018-05-06T08:32:31.089Z,51.93
2018-05-06T08:33:31.067Z,51.54
2018-05-06T08:34:31.044Z,50.58
2018-05-06T08:35:31.029Z,51.25
2018-05-06T08:36:30.996Z,51.06
2018-05-06T08:37:30.995Z,52.40
2018-05-06T08:38:30.947Z,52.69
2018-05-06T08:39:30.916Z,50.29
2018-05-06T08:40:30.890Z,50.29
2018-05-06T08:41:30.875Z,50.39
2018-05-06T08:42:30.841Z,50.68
2018-05-06T08:43:30.826Z,48.95
2018-05-06T08:44:30.804Z,48.11
2018-05-06T08:45:30.773Z,48.21
2018-05-06T08:46:30.753Z,49.46
2018-05-06T08:47:30.728Z,48.49
2018-05-06T08:48:31.194Z,49.36
2018-05-06T08:49:30.679Z,48.59
2018-05-06T08:50:30.655Z,47.25
2018-05-06T08:51:30.714Z,46.09
2018-05-06T08:52:30.609Z,45.83
2018-05-06T08:53:30.581Z,46.98
2018-05-06T08:54:30.554Z,47.17
2018-05-06T08:55:30.539Z,46.59
2018-05-06T08:56:30.573Z,46.59
2018-05-06T08:57:30.488Z,46.59
2018-05-06T08:58:30.510Z,46.79
2018-05-06T08:59:30.466Z,46.12
2018-05-06T09:00:30.445Z,46.98
2018-05-06T09:01:30.398Z,45.73
2018-05-06T09:02:30.382Z,45.54
2018-05-06T09:03:30.346Z,46.69
2018-05-06T09:04:30.324Z,47.17
2018-05-06T09:05:30.290Z,46.98
2018-05-06T09:06:30.301Z,48.45
2018-05-06T09:07:30.251Z,47.27
2018-05-06T09:08:30.221Z,46.53
2018-05-06T09:09:30.201Z,46.53
2018-05-06T09:10:30.180Z,46.43
2018-05-06T09:11:30.156Z,44.89
2018-05-06T09:12:30.126Z,45.18
2018-05-06T09:13:30.110Z,45.76
2018-05-06T09:14:30.081Z,45.76
2018-05-06T09:15:30.060Z,44.99
2018-05-06T09:16:30.036Z,45.47
2018-05-06T09:17:30.014Z,45.37
2018-05-06T09:18:29.983Z,45.37
2018-05-06T09:19:29.962Z,47.10
2018-05-06T09:20:29.964Z,46.81
2018-05-06T09:21:29.919Z,47.20
2018-05-06T09:22:29.888Z,46.23
2018-05-06T09:23:29.898Z,45.20
2018-05-06T09:24:29.844Z,45.37
2018-05-06T09:25:29.905Z,45.39
2018-05-06T09:26:29.790Z,45.68
2018-05-06T09:27:29.776Z,45.68
2018-05-06T09:28:29.768Z,45.68
2018-05-06T09:29:29.722Z,45.39
2018-05-06T09:30:29.721Z,44.91
2018-05-06T09:31:29.680Z,46.06
2018-05-06T09:32:29.650Z,45.01
2018-05-06T09:33:29.633Z,45.29
2018-05-06T09:34:29.693Z,46.45
2018-05-06T09:35:29.587Z,45.78
2018-05-06T09:36:29.560Z,46.06
2018-05-06T09:37:29.538Z,45.78
2018-05-06T09:38:29.516Z,45.20
2018-05-06T09:39:29.490Z,44.62
2018-05-06T09:40:29.465Z,44.72
2018-05-06T09:41:29.447Z,44.65
2018-05-06T09:42:29.416Z,45.42
2018-05-06T09:43:29.396Z,44.14
2018-05-06T09:44:29.375Z,43.95
2018-05-06T09:45:29.346Z,43.97
2018-05-06T09:46:29.327Z,44.74
2018-05-06T09:47:29.300Z,46.19
2018-05-06T09:48:29.282Z,44.74
2018-05-06T09:49:29.252Z,44.07
2018-05-06T09:50:29.227Z,44.17
2018-05-06T09:51:29.209Z,43.59
2018-05-06T09:52:29.259Z,42.63
2018-05-06T09:53:29.160Z,44.74
2018-05-06T09:54:29.143Z,45.25
2018-05-06T09:55:29.119Z,43.40
2018-05-06T09:56:29.092Z,43.51
2018-05-06T09:57:29.068Z,43.99
2018-05-06T09:58:29.040Z,43.99
2018-05-06T09:59:29.025Z,43.23
2018-05-06T10:00:28.994Z,43.61
2018-05-06T10:01:28.976Z,43.41
2018-05-06T10:02:28.955Z,43.99
2018-05-06T10:03:28.924Z,44.19
2018-05-06T10:04:28.907Z,44.76
2018-05-06T10:05:28.879Z,44.09
2018-05-06T10:06:28.867Z,42.84
2018-05-06T10:07:28.843Z,42.93
2018-05-06T10:08:28.820Z,41.30
2018-05-06T10:09:28.787Z,42.38
2018-05-06T10:10:28.768Z,42.76
2018-05-06T10:11:28.747Z,42.96
2018-05-06T10:12:28.759Z,42.76
2018-05-06T10:13:28.712Z,43.24
2018-05-06T10:14:28.705Z,42.67
2018-05-06T10:15:28.689Z,42.47
2018-05-06T10:16:28.698Z,41.89
2018-05-06T10:17:28.643Z,42.19
2018-05-06T10:18:28.624Z,42.47
2018-05-06T10:19:28.564Z,44.21
2018-05-06T10:20:28.534Z,43.15
2018-05-06T10:21:28.512Z,42.96
2018-05-06T10:22:28.493Z,43.17
2018-05-06T10:23:28.484Z,42.79
2018-05-06T10:24:28.443Z,42.30
2018-05-06T10:25:28.429Z,42.21
2018-05-06T10:26:28.404Z,42.49
2018-05-06T10:27:28.381Z,40.95
2018-05-06T10:28:28.361Z,41.44
2018-05-06T10:29:28.335Z,41.41
2018-05-06T10:30:28.302Z,42.30
2018-05-06T10:31:28.288Z,43.55
2018-05-06T10:32:28.260Z,44.23
2018-05-06T10:33:28.244Z,42.97
2018-05-06T10:34:28.211Z,42.30
2018-05-06T10:35:28.196Z,42.21
2018-05-06T10:36:28.173Z,41.44
2018-05-06T10:37:28.151Z,41.05
2018-05-06T10:38:28.150Z,41.24
2018-05-06T10:39:28.103Z,42.30
2018-05-06T10:40:28.076Z,42.69
2018-05-06T10:41:28.059Z,42.40
2018-05-06T10:42:28.126Z,42.59
2018-05-06T10:43:28.007Z,41.92
2018-05-06T10:44:28.005Z,40.19
2018-05-06T10:45:27.961Z,41.34
2018-05-06T10:46:27.939Z,41.44
2018-05-06T10:47:27.918Z,42.49
2018-05-06T10:48:27.890Z,41.44
2018-05-06T10:49:27.875Z,40.66
2018-05-06T10:50:27.912Z,40.37
2018-05-06T10:51:27.832Z,40.97
2018-05-06T10:52:27.801Z,40.59
2018-05-06T10:53:27.783Z,40.69
2018-05-06T10:54:27.754Z,40.59
2018-05-06T10:55:27.733Z,40.97
2018-05-06T10:56:27.709Z,39.43
2018-05-06T10:57:27.688Z,40.39
2018-05-06T10:58:27.661Z,41.46
2018-05-06T10:59:27.651Z,41.17
2018-05-06T11:00:27.623Z,41.75
2018-05-06T11:01:27.602Z,41.67
2018-05-06T11:02:27.570Z,41.09
2018-05-06T11:03:27.558Z,40.32
2018-05-06T11:04:27.533Z,38.68
2018-05-06T11:05:27.504Z,39.74
2018-05-06T11:06:27.481Z,40.42
2018-05-06T11:07:27.462Z,39.36
2018-05-06T11:08:27.440Z,38.97
2018-05-06T11:09:27.415Z,38.29
2018-05-06T11:10:27.503Z,39.64
2018-05-06T11:11:27.371Z,40.51
2018-05-06T11:12:27.353Z,40.51
2018-05-06T11:13:27.329Z,40.51
2018-05-06T11:14:27.301Z,41.09
2018-05-06T11:15:27.283Z,41.09
2018-05-06T11:16:27.260Z,41.38
2018-05-06T11:17:27.242Z,41.77
2018-05-06T11:18:27.216Z,40.70
2018-05-06T11:19:27.186Z,41.96
2018-05-06T11:20:27.163Z,41.38
2018-05-06T11:21:27.149Z,41.19
2018-05-06T11:22:27.121Z,41.77
2018-05-06T11:23:27.098Z,40.03
2018-05-06T11:24:27.078Z,40.80
2018-05-06T11:25:27.064Z,41.57
2018-05-06T11:26:27.051Z,41.69
2018-05-06T11:27:27.007Z,41.19
2018-05-06T11:28:26.984Z,40.70
2018-05-06T11:29:26.959Z,41.38
2018-05-06T11:30:26.934Z,40.61
2018-05-06T11:31:26.918Z,40.90
2018-05-06T11:32:26.898Z,41.67
2018-05-06T11:33:26.940Z,40.22
2018-05-06T11:34:26.857Z,39.54
2018-05-06T11:35:26.834Z,40.32
2018-05-06T11:36:26.806Z,40.05
2018-05-06T11:37:26.787Z,40.34
2018-05-06T11:38:26.758Z,40.24
2018-05-06T11:39:26.740Z,39.37
2018-05-06T11:40:26.715Z,40.44
2018-05-06T11:41:26.700Z,40.72
2018-05-06T11:42:26.666Z,40.53
2018-05-06T11:43:29.285Z,41.30
2018-05-06T11:44:26.622Z,40.53
2018-05-06T11:45:26.602Z,40.44
2018-05-06T11:46:26.584Z,40.44
2018-05-06T11:47:26.559Z,40.15
2018-05-06T11:48:26.538Z,40.05
2018-05-06T11:49:26.535Z,40.34
2018-05-06T11:50:26.548Z,39.86
2018-05-06T11:51:26.459Z,41.02
2018-05-06T11:52:26.445Z,41.69
2018-05-06T11:53:26.420Z,41.50
2018-05-06T11:54:26.402Z,40.72
2018-05-06T11:55:26.382Z,41.11
2018-05-06T11:56:26.355Z,40.92
2018-05-06T11:57:26.330Z,40.24
2018-05-06T11:58:26.310Z,41.11
2018-05-06T11:59:26.285Z,39.86
2018-05-06T12:00:26.267Z,39.57
2018-05-06T12:01:26.242Z,38.89
2018-05-06T12:02:26.251Z,39.57
2018-05-06T12:03:26.202Z,38.89
2018-05-06T12:04:26.174Z,37.83
2018-05-06T12:05:26.159Z,38.70
2018-05-06T12:06:26.129Z,39.66
2018-05-06T12:07:26.109Z,40.24
2018-05-06T12:08:26.083Z,39.87
2018-05-06T12:09:26.072Z,40.17
2018-05-06T12:10:26.041Z,38.99
2018-05-06T12:11:26.020Z,39.28
2018-05-06T12:12:26.002Z,40.26
2018-05-06T12:13:25.972Z,40.15
2018-05-06T12:14:25.948Z,40.17
2018-05-06T12:15:25.933Z,40.65
2018-05-06T12:16:25.910Z,40.36
2018-05-06T12:17:25.916Z,40.45
2018-05-06T12:18:25.863Z,41.13
2018-05-06T12:19:25.840Z,40.94
2018-05-06T12:20:25.821Z,41.81
2018-05-06T12:21:25.790Z,40.36
2018-05-06T12:22:25.775Z,39.78
2018-05-06T12:23:25.754Z,41.03
2018-05-06T12:24:25.732Z,40.55
2018-05-06T12:25:25.706Z,40.67
2018-05-06T12:26:25.682Z,41.73
2018-05-06T12:27:25.667Z,42.41
2018-05-06T12:28:25.639Z,40.77
2018-05-06T12:29:25.650Z,40.67
2018-05-06T12:30:25.594Z,40.96
2018-05-06T12:31:25.566Z,40.28
2018-05-06T12:32:25.549Z,38.83
2018-05-06T12:33:25.528Z,39.80
2018-05-06T12:34:25.510Z,40.19
2018-05-06T12:35:25.491Z,39.41
2018-05-06T12:36:25.459Z,40.09
2018-05-06T12:37:25.444Z,40.40
2018-05-06T12:38:25.603Z,39.43
2018-05-06T12:39:25.410Z,39.34
2018-05-06T12:40:25.386Z,38.76
2018-05-06T12:41:25.356Z,38.85
2018-05-06T12:42:25.330Z,39.04
2018-05-06T12:43:25.406Z,38.37
2018-05-06T12:44:25.286Z,39.53
2018-05-06T12:45:25.272Z,38.18
2018-05-06T12:46:25.239Z,37.88
2018-05-06T12:47:25.224Z,39.24
2018-05-06T12:48:25.199Z,39.45
2018-05-06T12:49:25.268Z,39.82
2018-05-06T12:50:25.152Z,40.71
2018-05-06T12:51:25.135Z,38.87
2018-05-06T12:52:25.108Z,40.03